Time;durP1;ratioP1;P1;durP2;ratioP2;P2;SDS_P1;SDS_P2;PMS_P1;PMS_P2;Temp;Humidity;BMP_temperature;BMP_pressure;BME280_temperature;BME280_humidity;BME280_pressure;Samples;Min_cycle;Max_cycle;Signal;HPM_P1;HPM_P2
2022/03/26 00:02:21;;;;;;;38.17;21.27;;;;;;;8.92;57.23;103104.88;5020798;28;20040;-64
2022/03/26 00:04:46;;;;;;;41.83;21.40;;;;;;;8.86;57.19;103106.16;5018560;28;20416;-64
2022/03/26 00:07:11;;;;;;;35.45;20.98;;;;;;;8.77;57.38;103104.13;5013436;28;20273;-64
2022/03/26 00:09:37;;;;;;;44.13;21.60;;;;;;;8.74;57.57;103101.69;5020705;28;20076;-64
2022/03/26 00:12:02;;;;;;;39.63;21.45;;;;;;;8.67;57.88;103108.34;5023148;28;20029;-64
2022/03/26 00:14:28;;;;;;;38.22;21.58;;;;;;;8.60;58.21;103112.34;5024906;28;20029;-64
2022/03/26 00:16:54;;;;;;;44.08;21.65;;;;;;;8.61;58.02;103108.75;5025556;28;20036;-64
2022/03/26 00:19:19;;;;;;;42.47;21.88;;;;;;;8.50;58.41;103098.88;5025580;28;20119;-64
2022/03/26 00:21:47;;;;;;;41.63;21.58;;;;;;;8.39;58.42;103093.47;5015742;28;20041;-64
2022/03/26 00:24:13;;;;;;;40.38;21.63;;;;;;;8.41;58.74;103102.16;5023449;28;20026;-64
2022/03/26 00:26:38;;;;;;;48.80;22.02;;;;;;;8.30;58.88;103094.84;5025043;28;20029;-64
2022/03/26 00:29:04;;;;;;;43.65;21.85;;;;;;;8.31;58.99;103093.91;5022401;28;20052;-64
2022/03/26 00:31:30;;;;;;;40.83;21.90;;;;;;;8.25;59.01;103091.66;5028272;28;20074;-64
2022/03/26 00:33:55;;;;;;;43.08;22.02;;;;;;;8.16;59.16;103097.56;5027255;28;20041;-64
2022/03/26 00:36:20;;;;;;;42.72;22.88;;;;;;;8.13;59.56;103100.41;5025618;28;20460;-64
2022/03/26 00:38:46;;;;;;;44.25;21.83;;;;;;;8.07;59.46;103098.13;5027849;28;20233;-64
2022/03/26 00:41:11;;;;;;;47.33;22.27;;;;;;;8.07;59.79;103104.28;5023729;28;20171;-64
2022/03/26 00:43:37;;;;;;;42.50;22.38;;;;;;;8.01;59.95;103101.19;5028114;28;20090;-64
2022/03/26 00:46:02;;;;;;;45.28;22.40;;;;;;;7.96;60.30;103101.50;5015058;28;20033;-65
2022/03/26 00:48:28;;;;;;;44.13;21.75;;;;;;;7.96;60.48;103100.63;5021683;28;20466;-65
2022/03/26 00:50:53;;;;;;;46.53;22.95;;;;;;;7.88;60.50;103098.50;5019733;28;20440;-65
2022/03/26 00:53:18;;;;;;;45.13;22.70;;;;;;;7.88;60.68;103098.50;5030565;28;20033;-64
2022/03/26 00:55:43;;;;;;;41.03;23.38;;;;;;;7.73;60.82;103092.34;5028469;28;20292;-64
2022/03/26 00:58:09;;;;;;;42.83;21.30;;;;;;;7.62;61.10;103089.56;5016268;28;20550;-65
2022/03/26 01:00:34;;;;;;;40.92;21.40;;;;;;;7.53;61.11;103086.66;5021911;28;20095;-65
2022/03/26 01:03:02;;;;;;;40.28;20.63;;;;;;;7.36;61.12;103088.53;5019600;28;20026;-64
2022/03/26 01:05:28;;;;;;;44.03;21.77;;;;;;;7.29;61.39;103094.28;5019778;28;20102;-64
2022/03/26 01:07:53;;;;;;;42.75;22.38;;;;;;;7.17;61.64;103089.72;5021781;28;20440;-64
2022/03/26 01:10:19;;;;;;;40.40;21.38;;;;;;;7.18;61.88;103086.16;5018301;28;20489;-65
2022/03/26 01:12:44;;;;;;;49.58;23.20;;;;;;;7.14;62.28;103091.63;5023397;28;20021;-65
2022/03/26 01:15:09;;;;;;;48.65;23.35;;;;;;;7.17;62.37;103089.72;5023837;28;20504;-65
2022/03/26 01:17:34;;;;;;;46.85;23.90;;;;;;;7.15;62.76;103088.03;5024084;28;20045;-64
2022/03/26 01:20:00;;;;;;;46.30;23.13;;;;;;;7.11;62.77;103085.66;5022567;28;20033;-64
2022/03/26 01:22:26;;;;;;;47.13;22.60;;;;;;;7.12;63.16;103090.88;5021930;28;20049;-65
2022/03/26 01:24:51;;;;;;;41.20;21.30;;;;;;;7.08;63.33;103088.50;5020293;28;20532;-64
2022/03/26 01:27:16;;;;;;;39.67;21.27;;;;;;;7.01;63.23;103088.03;5024836;28;20033;-64
2022/03/26 01:29:42;;;;;;;41.07;21.40;;;;;;;7.02;63.27;103095.00;5025487;28;20025;-64
2022/03/26 01:32:08;;;;;;;40.80;21.27;;;;;;;6.92;63.55;103085.06;5021633;28;20078;-64
2022/03/26 01:34:34;;;;;;;39.20;20.97;;;;;;;6.92;63.36;103085.91;5022105;28;20104;-64
2022/03/26 01:37:02;;;;;;;38.73;22.07;;;;;;;6.92;63.55;103085.06;5023795;28;20037;-64
2022/03/26 01:39:28;;;;;;;40.03;22.23;;;;;;;6.94;63.92;103086.72;5017026;28;20034;-64
2022/03/26 01:41:53;;;;;;;41.90;22.03;;;;;;;6.93;63.79;103092.06;5015156;28;20057;-64
2022/03/26 01:44:19;;;;;;;42.93;22.80;;;;;;;6.89;64.23;103093.19;5016332;28;20056;-64
2022/03/26 01:46:47;;;;;;;38.87;22.27;;;;;;;6.87;64.22;103093.28;5020414;28;20056;-64
2022/03/26 01:49:12;;;;;;;41.00;21.57;;;;;;;6.82;64.52;103095.34;5019848;28;20029;-64
2022/03/26 01:51:37;;;;;;;47.83;22.57;;;;;;;6.80;64.44;103089.31;5020525;28;20495;-64
2022/03/26 01:54:02;;;;;;;43.53;21.43;;;;;;;6.73;64.40;103091.47;5023148;28;20034;-64
2022/03/26 01:56:28;;;;;;;42.67;21.80;;;;;;;6.73;64.53;103090.59;5024573;28;20061;-64
2022/03/26 01:58:54;;;;;;;45.13;21.83;;;;;;;6.74;64.84;103089.66;5024513;28;20026;-64
2022/03/26 02:01:19;;;;;;;40.83;21.73;;;;;;;6.74;64.82;103090.53;5027561;28;20039;-64
2022/03/26 02:03:44;;;;;;;41.93;23.13;;;;;;;6.63;65.01;103086.78;5027341;28;20026;-64
2022/03/26 02:06:10;;;;;;;50.90;22.17;;;;;;;6.61;65.15;103088.66;5025318;28;20056;-64
2022/03/26 02:08:35;;;;;;;40.33;22.73;;;;;;;6.53;65.47;103091.78;5027134;28;20393;-64
2022/03/26 02:11:01;;;;;;;42.80;21.83;;;;;;;6.50;65.36;103092.78;5027858;28;20029;-64
2022/03/26 02:13:46;;;;;;;46.73;23.10;;;;;;;6.44;65.67;103085.25;5026449;28;20486;-64
2022/03/26 02:16:12;;;;;;;47.67;23.03;;;;;;;6.42;65.77;103096.81;5019052;28;20079;-64
2022/03/26 02:18:37;;;;;;;39.70;21.43;;;;;;;6.38;66.09;103090.03;5025124;28;20463;-64
2022/03/26 02:21:02;;;;;;;42.57;22.43;;;;;;;6.37;65.98;103091.81;5023680;28;20083;-64
2022/03/26 02:23:28;;;;;;;43.67;21.83;;;;;;;6.45;66.07;103089.56;5024483;28;20026;-64
2022/03/26 02:25:53;;;;;;;43.77;22.40;;;;;;;6.41;66.36;103092.50;5026496;28;20025;-64
2022/03/26 02:28:18;;;;;;;45.83;22.40;;;;;;;6.44;66.25;103094.94;5017507;28;20030;-64
2022/03/26 02:30:44;;;;;;;43.57;22.57;;;;;;;6.42;66.32;103089.75;5018211;28;20029;-64
2022/03/26 02:33:09;;;;;;;40.00;22.37;;;;;;;6.34;66.68;103085.84;5022245;28;20126;-64
2022/03/26 02:35:34;;;;;;;46.10;22.77;;;;;;;6.26;66.64;103078.38;5023712;28;20033;-64
2022/03/26 02:37:59;;;;;;;49.30;23.37;;;;;;;6.22;66.72;103079.47;5025856;28;20477;-65
2022/03/26 02:40:25;;;;;;;41.77;22.67;;;;;;;6.18;66.86;103085.88;5022812;28;20036;-64
2022/03/26 02:42:50;;;;;;;44.37;22.70;;;;;;;6.17;67.04;103081.53;5025429;28;20554;-64
2022/03/26 02:45:15;;;;;;;44.47;21.60;;;;;;;6.27;66.97;103093.25;5018098;28;20493;-64
2022/03/26 02:47:40;;;;;;;41.83;22.60;;;;;;;6.21;67.02;103081.28;5025173;28;20527;-64
2022/03/26 02:50:08;;;;;;;44.77;22.33;;;;;;;6.11;67.19;103088.03;5016517;28;20446;-64
2022/03/26 02:52:35;;;;;;;43.87;22.97;;;;;;;6.03;67.06;103086.72;5023694;28;20026;-64
2022/03/26 02:55:01;;;;;;;44.30;22.40;;;;;;;5.99;67.24;103087.84;5019451;28;20029;-64
2022/03/26 02:57:26;;;;;;;48.70;23.10;;;;;;;5.98;67.38;103083.50;5017424;28;20026;-64
2022/03/26 02:59:52;;;;;;;43.73;22.67;;;;;;;5.91;67.29;103090.91;5022876;28;20495;-64
2022/03/26 03:02:18;;;;;;;40.53;21.67;;;;;;;5.80;67.50;103083.56;5023322;28;20021;-64
2022/03/26 03:04:43;;;;;;;43.87;21.80;;;;;;;5.72;67.64;103083.13;5018744;28;20021;-64
2022/03/26 03:07:08;;;;;;;42.93;22.43;;;;;;;5.62;67.92;103078.44;5017787;28;20022;-64
2022/03/26 03:09:33;;;;;;;42.77;21.53;;;;;;;5.55;68.15;103088.47;5019424;28;20021;-64
2022/03/26 03:11:59;;;;;;;36.43;20.47;;;;;;;5.64;68.21;103093.22;5018216;28;20484;-64
2022/03/26 03:14:24;;;;;;;43.00;22.43;;;;;;;5.64;68.40;103087.97;5020108;28;20409;-64
2022/03/26 03:16:50;;;;;;;41.30;21.07;;;;;;;5.68;68.38;103093.91;5020168;28;20407;-64
2022/03/26 03:19:15;;;;;;;40.50;20.80;;;;;;;5.74;68.34;103091.78;5019976;28;20017;-64
2022/03/26 03:21:40;;;;;;;42.60;21.80;;;;;;;5.71;68.28;103088.47;5017491;28;20586;-64
2022/03/26 03:24:06;;;;;;;44.50;21.87;;;;;;;5.75;68.40;103092.63;5013352;28;20030;-64
2022/03/26 03:26:31;;;;;;;39.80;20.93;;;;;;;5.70;68.72;103103.44;5024273;28;20029;-63
2022/03/26 03:28:59;;;;;;;46.27;22.33;;;;;;;5.74;68.42;103102.34;5020830;28;20117;-64
2022/03/26 03:31:25;;;;;;;40.33;21.73;;;;;;;5.72;68.52;103093.66;5022473;28;20034;-63
2022/03/26 03:33:51;;;;;;;47.33;23.37;;;;;;;5.76;68.79;103102.25;5016679;28;20025;-64
2022/03/26 03:36:16;;;;;;;43.00;22.27;;;;;;;5.77;68.81;103101.31;5022209;28;20224;-64
2022/03/26 03:38:41;;;;;;;47.67;22.43;;;;;;;5.79;69.04;103092.41;5023845;28;20521;-64
2022/03/26 03:41:07;;;;;;;47.63;23.40;;;;;;;5.77;69.04;103096.88;5021537;28;20024;-64
2022/03/26 03:43:32;;;;;;;43.90;22.77;;;;;;;5.77;68.88;103107.44;5028867;28;20033;-64
2022/03/26 03:45:58;;;;;;;41.93;23.90;;;;;;;5.71;69.01;103105.13;5020781;28;20026;-64
2022/03/26 03:48:23;;;;;;;45.03;22.33;;;;;;;5.74;68.99;103102.34;5021148;28;20025;-64
2022/03/26 03:50:48;;;;;;;41.00;21.63;;;;;;;5.74;69.04;103109.41;5023326;28;20029;-64
2022/03/26 03:53:15;;;;;;;42.80;22.20;;;;;;;5.72;68.93;103112.13;5020228;28;20060;-63
2022/03/26 03:55:40;;;;;;;39.87;22.07;;;;;;;5.70;69.03;103103.44;5018366;28;20021;-64
2022/03/26 03:58:06;;;;;;;42.67;21.77;;;;;;;5.65;69.11;103109.91;5015685;28;20512;-64
2022/03/26 04:00:31;;;;;;;47.53;23.10;;;;;;;5.58;69.22;103109.38;5020804;28;20056;-64
2022/03/26 04:02:56;;;;;;;43.67;22.13;;;;;;;5.52;69.62;103107.94;5018893;28;20022;-64
2022/03/26 04:05:22;;;;;;;48.20;23.90;;;;;;;5.46;69.69;103104.75;5014114;28;20082;-64
2022/03/26 04:07:47;;;;;;;42.33;22.73;;;;;;;5.35;69.74;103086.88;5014199;28;20193;-64
2022/03/26 04:10:13;;;;;;;44.47;22.57;;;;;;;5.45;69.71;103105.69;5017143;28;20492;-64
2022/03/26 04:12:40;;;;;;;46.10;23.23;;;;;;;5.41;69.75;103101.50;5014895;28;20030;-64
2022/03/26 04:15:08;;;;;;;47.40;23.83;;;;;;;5.44;69.90;103104.84;5025068;28;20021;-64
2022/03/26 04:17:33;;;;;;;44.67;23.27;;;;;;;5.43;69.95;103105.78;5022961;28;20087;-64
2022/03/26 04:20:00;;;;;;;51.17;23.27;;;;;;;5.50;70.03;103107.16;5016079;28;20040;-64
2022/03/26 04:22:25;;;;;;;49.80;21.80;;;;;;;5.51;69.99;103111.50;5020730;28;20099;-64
2022/03/26 04:24:50;;;;;;;39.83;22.27;;;;;;;5.53;69.97;103108.78;5018776;28;20508;-64
2022/03/26 04:27:15;;;;;;;43.20;22.73;;;;;;;5.54;70.01;103111.34;5016668;28;20022;-64
2022/03/26 04:29:41;;;;;;;47.93;22.03;;;;;;;5.52;69.93;103115.00;5019441;28;20622;-64
2022/03/26 04:32:07;;;;;;;45.67;21.40;;;;;;;5.49;70.13;103110.75;5018364;28;20025;-64
2022/03/26 04:34:32;;;;;;;42.43;22.07;;;;;;;5.46;69.91;103110.03;5019430;28;20497;-64
2022/03/26 04:36:57;;;;;;;51.93;23.33;;;;;;;5.38;69.85;103106.94;5021358;28;20516;-64
2022/03/26 04:39:22;;;;;;;42.70;22.03;;;;;;;5.31;70.03;103105.59;5024111;28;20033;-64
2022/03/26 04:41:48;;;;;;;45.50;21.27;;;;;;;5.32;70.11;103104.66;5024587;28;20048;-64
2022/03/26 04:44:14;;;;;;;45.20;21.40;;;;;;;5.31;70.12;103113.47;5019139;28;20017;-64
2022/03/26 04:46:40;;;;;;;44.77;22.70;;;;;;;5.23;70.23;103100.72;5017361;28;20025;-64
2022/03/26 04:49:05;;;;;;;46.00;22.00;;;;;;;5.24;70.14;103108.53;5013299;28;20389;-64
2022/03/26 04:51:30;;;;;;;39.80;21.67;;;;;;;5.22;70.18;103104.28;5016086;28;20029;-64
2022/03/26 04:53:56;;;;;;;43.37;21.93;;;;;;;5.13;70.51;103108.22;5024216;28;20550;-64
2022/03/26 04:56:21;;;;;;;48.13;22.50;;;;;;;5.15;70.16;103108.16;5016798;28;20022;-63
2022/03/26 04:58:48;;;;;;;45.33;22.23;;;;;;;5.11;70.36;103110.09;5019745;28;20606;-64
2022/03/26 05:01:13;;;;;;;41.83;21.37;;;;;;;5.00;70.42;103104.53;5019844;28;20044;-64
2022/03/26 05:03:39;;;;;;;43.30;22.20;;;;;;;5.00;70.46;103106.31;5023638;28;20484;-64
2022/03/26 05:06:04;;;;;;;37.33;21.63;;;;;;;4.97;70.31;103105.56;5015415;28;20094;-64
2022/03/26 05:08:29;;;;;;;46.17;22.50;;;;;;;4.99;70.56;103108.09;5024773;28;20022;-64
2022/03/26 05:10:54;;;;;;;42.30;21.83;;;;;;;4.96;70.64;103116.16;5019223;28;20057;-64
2022/03/26 05:13:20;;;;;;;42.60;22.33;;;;;;;4.96;70.62;103111.75;5025806;28;20030;-64
2022/03/26 05:15:45;;;;;;;46.83;23.60;;;;;;;4.94;70.70;103110.13;5014397;28;20053;-64
2022/03/26 05:18:13;;;;;;;48.37;23.33;;;;;;;4.90;70.62;103116.44;5017125;28;20080;-64
2022/03/26 05:20:38;;;;;;;47.03;23.77;;;;;;;4.83;70.82;103115.91;5024604;28;20112;-64
2022/03/26 05:23:05;;;;;;;45.70;23.40;;;;;;;4.90;71.09;103122.56;5023043;28;20097;-64
2022/03/26 05:25:31;;;;;;;49.83;24.50;;;;;;;4.93;71.10;103129.50;5019794;28;20064;-64
2022/03/26 05:27:56;;;;;;;50.93;24.13;;;;;;;5.01;71.25;103127.31;5020990;28;20054;-64
2022/03/26 05:30:22;;;;;;;47.67;24.57;;;;;;;5.10;71.27;103129.47;5018100;28;20113;-64
2022/03/26 05:32:48;;;;;;;53.30;24.87;;;;;;;5.16;71.17;103129.13;5024271;28;20025;-64
2022/03/26 05:35:16;;;;;;;48.97;25.37;;;;;;;5.22;70.92;103134.13;5016929;28;20111;-64
2022/03/26 05:37:42;;;;;;;54.87;25.30;;;;;;;5.27;70.96;103132.09;5021446;28;20033;-64
2022/03/26 05:40:09;;;;;;;49.57;25.03;;;;;;;5.26;70.75;103126.91;5018340;28;20032;-64
2022/03/26 05:42:36;;;;;;;44.07;24.77;;;;;;;5.32;70.88;103139.75;5019895;28;20457;-64
2022/03/26 05:45:06;;;;;;;49.83;24.87;;;;;;;5.35;70.81;103149.28;5022517;28;20060;-64
2022/03/26 05:47:31;;;;;;;45.23;24.43;;;;;;;5.32;70.73;103138.91;5018114;28;20028;-64
2022/03/26 05:49:57;;;;;;;56.50;24.37;;;;;;;5.36;70.70;103135.16;5015509;28;20021;-64
2022/03/26 05:52:22;;;;;;;49.43;24.53;;;;;;;5.32;70.61;103136.25;5017018;28;20037;-64
2022/03/26 05:54:47;;;;;;;49.83;25.50;;;;;;;5.31;70.50;103138.03;5022836;28;20441;-64
2022/03/26 05:57:13;;;;;;;48.63;25.40;;;;;;;5.33;70.71;103145.88;5017210;28;20045;-64
2022/03/26 05:59:38;;;;;;;50.13;25.13;;;;;;;5.22;70.67;103141.16;5020153;28;20025;-64
2022/03/26 06:02:04;;;;;;;53.17;24.73;;;;;;;5.27;70.64;103144.41;5020965;28;20029;-64
2022/03/26 06:04:29;;;;;;;50.47;25.37;;;;;;;5.31;71.00;103147.72;5026448;28;20033;-64
2022/03/26 06:06:54;;;;;;;74.37;27.77;;;;;;;5.39;71.09;103150.81;5018816;28;20026;-64
2022/03/26 06:09:20;;;;;;;52.17;25.80;;;;;;;5.45;71.44;103148.69;5014589;28;20036;-64
2022/03/26 06:11:45;;;;;;;52.77;26.17;;;;;;;5.54;71.58;103150.88;5011560;28;20037;-64
2022/03/26 06:14:10;;;;;;;57.50;27.90;;;;;;;5.70;71.85;103156.16;5021523;28;20428;-64
2022/03/26 06:16:35;;;;;;;57.93;25.80;;;;;;;5.82;71.66;103159.94;5028605;28;20044;-64
2022/03/26 06:19:01;;;;;;;67.87;26.90;;;;;;;6.00;71.60;103153.69;5022572;28;20029;-64
2022/03/26 06:21:29;;;;;;;54.80;26.60;;;;;;;6.17;71.69;103150.97;5013432;28;20092;-64
2022/03/26 06:23:57;;;;;;;53.17;26.67;;;;;;;6.23;71.10;103144.50;5028079;28;20033;-64
2022/03/26 06:26:22;;;;;;;65.77;28.30;;;;;;;6.41;70.91;103164.59;5029104;28;20041;-64
2022/03/26 06:28:48;;;;;;;55.93;27.67;;;;;;;6.58;70.77;103162.78;5011199;28;20049;-64
2022/03/26 06:31:13;;;;;;;67.83;28.73;;;;;;;6.62;70.57;103161.66;5021184;28;20034;-65
2022/03/26 06:33:38;;;;;;;59.40;27.57;;;;;;;6.70;70.38;103164.72;5018962;28;20036;-65
2022/03/26 06:36:04;;;;;;;54.27;26.90;;;;;;;6.78;69.97;103159.84;5018617;28;20076;-65
2022/03/26 06:38:31;;;;;;;62.80;27.10;;;;;;;6.94;69.97;103162.44;5024864;28;20033;-65
2022/03/26 06:40:58;;;;;;;54.90;27.90;;;;;;;7.07;69.86;103166.06;5016308;28;20033;-65
2022/03/26 06:43:23;;;;;;;58.00;27.90;;;;;;;7.25;69.66;103166.78;5022773;28;20025;-65
2022/03/26 06:45:48;;;;;;;58.27;27.67;;;;;;;7.40;69.04;103165.84;5025747;28;20083;-65
2022/03/26 06:48:13;;;;;;;55.23;27.30;;;;;;;7.52;68.75;103164.22;5019917;28;20481;-64
2022/03/26 06:50:39;;;;;;;52.27;27.57;;;;;;;7.67;68.31;103166.78;5026130;28;20033;-65
2022/03/26 06:53:04;;;;;;;58.90;28.20;;;;;;;7.82;68.19;103161.53;5026122;28;20033;-65
2022/03/26 06:55:29;;;;;;;55.90;27.97;;;;;;;7.97;67.92;103176.41;5023907;28;20437;-65
2022/03/26 06:57:54;;;;;;;53.00;28.23;;;;;;;8.12;67.70;103174.63;5018447;28;20041;-64
2022/03/26 07:00:20;;;;;;;57.63;28.33;;;;;;;8.22;67.44;103171.28;5023596;28;20025;-65
2022/03/26 07:02:45;;;;;;;56.20;28.70;;;;;;;8.41;67.35;103172.78;5025730;28;20634;-65
2022/03/26 07:05:15;;;;;;;59.03;29.38;;;;;;;8.61;67.22;103177.63;5026175;28;20040;-64
2022/03/26 07:07:40;;;;;;;55.33;28.87;;;;;;;8.69;66.95;103173.53;5015983;28;20567;-65
2022/03/26 07:10:06;;;;;;;57.00;28.25;;;;;;;8.81;67.10;103171.84;5013017;28;20643;-64
2022/03/26 07:12:32;;;;;;;57.72;28.42;;;;;;;9.02;66.34;103185.50;5027585;28;20365;-65
2022/03/26 07:14:57;;;;;;;52.75;29.13;;;;;;;9.10;66.28;103179.66;5021956;28;20030;-65
2022/03/26 07:17:23;;;;;;;56.30;28.38;;;;;;;9.35;65.90;103185.00;5034076;28;20138;-65
2022/03/26 07:19:48;;;;;;;59.70;28.85;;;;;;;9.39;65.64;103186.47;5024405;28;20507;-65
2022/03/26 07:22:14;;;;;;;62.90;27.75;;;;;;;9.61;64.92;103186.72;5028459;28;20029;-65
2022/03/26 07:24:39;;;;;;;55.38;27.98;;;;;;;9.73;64.34;103181.50;5027036;28;20030;-65
2022/03/26 07:27:05;;;;;;;58.25;27.80;;;;;;;9.92;63.70;103184.56;5028177;28;20033;-65
2022/03/26 07:29:30;;;;;;;57.95;27.67;;;;;;;10.15;63.04;103188.22;5026934;28;20032;-65
2022/03/26 07:31:55;;;;;;;55.10;27.67;;;;;;;10.23;62.58;103185.88;5027849;28;20416;-65
2022/03/26 07:34:22;;;;;;;51.90;26.77;;;;;;;10.53;62.19;103182.81;5018338;28;20051;-65
2022/03/26 07:36:48;;;;;;;56.92;27.55;;;;;;;10.63;62.07;103185.63;5027722;28;20064;-65
2022/03/26 07:39:13;;;;;;;56.53;26.73;;;;;;;10.74;61.46;103185.69;5026151;28;20057;-65
2022/03/26 07:41:38;;;;;;;59.10;26.70;;;;;;;10.88;60.68;103188.16;5021815;28;20033;-65
2022/03/26 07:44:04;;;;;;;51.75;25.63;;;;;;;11.02;60.83;103187.97;5016203;28;20072;-65
2022/03/26 07:46:29;;;;;;;58.83;27.25;;;;;;;11.11;59.83;103189.09;5026473;28;20029;-65
2022/03/26 07:48:55;;;;;;;54.97;25.40;;;;;;;11.33;59.54;103185.66;5021578;28;20037;-65
2022/03/26 07:51:20;;;;;;;50.63;26.40;;;;;;;11.39;58.69;103186.00;5025143;28;20400;-65
2022/03/26 07:53:45;;;;;;;50.25;25.55;;;;;;;11.64;58.80;103194.75;5027280;28;20021;-65
2022/03/26 07:56:10;;;;;;;50.03;25.05;;;;;;;11.83;58.49;103202.16;5013637;28;20034;-65
2022/03/26 07:58:36;;;;;;;53.65;26.23;;;;;;;11.96;57.96;103190.44;5016442;28;20087;-65
2022/03/26 08:01:02;;;;;;;51.13;25.85;;;;;;;11.95;57.67;103198.53;5027068;28;20053;-65
2022/03/26 08:03:27;;;;;;;50.70;25.63;;;;;;;12.07;57.82;103187.75;5018329;28;20373;-65
2022/03/26 08:05:52;;;;;;;54.53;26.23;;;;;;;12.30;57.38;103198.38;5027053;28;20079;-65
2022/03/26 08:08:18;;;;;;;53.08;26.27;;;;;;;12.55;57.08;103203.41;5018366;28;20488;-65
2022/03/26 08:10:43;;;;;;;51.88;26.55;;;;;;;12.72;56.82;103210.00;5023181;28;20026;-66
2022/03/26 08:13:09;;;;;;;55.40;26.23;;;;;;;12.82;56.76;103205.63;5027208;28;20029;-65
2022/03/26 08:15:34;;;;;;;54.75;25.48;;;;;;;12.86;56.35;103200.88;5022444;28;20038;-65
2022/03/26 08:18:02;;;;;;;51.10;25.27;;;;;;;12.85;56.29;103205.38;5026571;28;20033;-65
2022/03/26 08:20:28;;;;;;;57.08;24.67;;;;;;;13.07;55.71;103215.09;5025989;28;20022;-65
2022/03/26 08:22:53;;;;;;;52.50;24.20;;;;;;;13.13;55.32;103214.56;5025015;28;20255;-65
2022/03/26 08:26:19;;;;;;;51.40;26.13;;;;;;;13.25;55.55;103218.88;5023297;28;20393;-65
2022/03/26 08:28:09;;;;;;;46.97;25.42;;;;;;;13.41;54.80;103225.63;5023865;28;20120;-65
2022/03/26 08:30:34;;;;;;;54.67;25.23;;;;;;;13.48;54.92;103234.78;5026898;28;20018;-65
2022/03/26 08:33:01;;;;;;;50.78;25.50;;;;;;;13.49;54.37;103234.66;5026596;28;20028;-65
2022/03/26 08:35:31;;;;;;;56.15;26.30;;;;;;;13.42;54.36;103236.16;5026743;28;20417;-66
2022/03/26 08:37:56;;;;;;;51.58;27.50;;;;;;;13.53;54.14;103235.22;5020843;28;20040;-65
2022/03/26 08:40:21;;;;;;;52.10;26.85;;;;;;;13.58;54.02;103231.19;5026236;28;20017;-65
2022/03/26 08:42:46;;;;;;;55.05;26.80;;;;;;;13.62;54.13;103240.66;5026430;28;20025;-65
2022/03/26 08:45:12;;;;;;;54.30;25.58;;;;;;;13.73;53.73;103234.38;5021337;28;20053;-65
2022/03/26 08:47:37;;;;;;;52.90;25.20;;;;;;;13.78;53.80;103232.13;5026999;28;20374;-65
2022/03/26 08:50:02;;;;;;;53.78;25.23;;;;;;;13.91;53.41;103237.28;5025981;28;20025;-65
2022/03/26 08:52:28;;;;;;;52.92;24.85;;;;;;;13.98;52.64;103237.59;5024362;28;20041;-65
2022/03/26 08:54:53;;;;;;;46.40;24.10;;;;;;;14.06;52.38;103241.25;5017765;28;20115;-65
2022/03/26 08:57:18;;;;;;;46.63;24.35;;;;;;;14.09;51.76;103235.66;5017506;28;20030;-65
2022/03/26 08:59:43;;;;;;;49.22;24.30;;;;;;;14.23;51.73;103237.13;5021887;28;20034;-65
2022/03/26 09:02:09;;;;;;;43.63;23.35;;;;;;;14.30;51.02;103234.75;5018877;28;20052;-66
2022/03/26 09:04:34;;;;;;;50.40;24.23;;;;;;;14.38;51.45;103235.75;5021198;28;20400;-66
2022/03/26 09:06:59;;;;;;;45.90;23.58;;;;;;;14.46;50.66;103238.63;5024616;28;20068;-65
2022/03/26 09:09:24;;;;;;;44.47;21.67;;;;;;;14.60;50.71;103233.84;5028742;28;20025;-65
2022/03/26 09:11:50;;;;;;;46.75;22.05;;;;;;;14.69;50.16;103239.22;5024122;28;20026;-65
2022/03/26 09:14:15;;;;;;;47.38;22.70;;;;;;;14.80;49.67;103239.09;5026270;28;20025;-65
2022/03/26 09:16:40;;;;;;;46.22;21.58;;;;;;;14.92;49.44;103239.78;5019720;28;20034;-65
2022/03/26 09:19:06;;;;;;;48.90;22.60;;;;;;;15.00;49.24;103239.94;5027606;28;20041;-65
2022/03/26 09:21:31;;;;;;;41.42;20.23;;;;;;;15.12;48.99;103241.50;5017677;28;20018;-66
2022/03/26 09:23:56;;;;;;;71.25;24.98;;;;;;;15.21;48.45;103237.09;5023984;28;20036;-65
2022/03/26 09:26:21;;;;;;;57.67;23.02;;;;;;;15.34;48.36;103237.69;5026019;28;20789;-65
2022/03/26 09:28:47;;;;;;;48.10;22.35;;;;;;;15.38;48.37;103241.75;5025333;28;20388;-66
2022/03/26 09:31:12;;;;;;;44.67;21.20;;;;;;;15.48;48.45;103239.03;5024143;28;20033;-66
2022/03/26 09:33:37;;;;;;;39.80;20.20;;;;;;;15.57;48.75;103232.81;5022043;28;20491;-66
2022/03/26 09:36:03;;;;;;;39.97;20.38;;;;;;;15.68;48.00;103231.84;5020496;28;20025;-65
2022/03/26 09:38:28;;;;;;;38.58;20.20;;;;;;;15.88;47.84;103238.81;5019418;28;20037;-65
2022/03/26 09:40:53;;;;;;;43.10;19.30;;;;;;;16.13;46.68;103242.66;5015645;28;20033;-66
2022/03/26 09:43:20;;;;;;;42.42;19.42;;;;;;;16.35;46.43;103238.75;5029591;28;20049;-66
2022/03/26 09:45:45;;;;;;;38.20;16.88;;;;;;;16.43;45.89;103234.31;5029720;28;20025;-66
2022/03/26 09:48:11;;;;;;;34.38;18.58;;;;;;;16.50;45.78;103234.56;5028564;28;20032;-66
2022/03/26 09:50:41;;;;;;;37.65;18.40;;;;;;;16.63;45.05;103242.22;5020971;28;20045;-66
2022/03/26 09:53:10;;;;;;;37.72;19.25;;;;;;;16.83;45.10;103234.94;5025727;28;20048;-66
2022/03/26 09:55:36;;;;;;;34.22;18.13;;;;;;;16.96;45.04;103244.25;5021001;28;20037;-65
2022/03/26 09:58:01;;;;;;;36.95;17.80;;;;;;;17.08;43.78;103238.69;5029007;28;20047;-66
2022/03/26 10:00:27;;;;;;;41.25;19.45;;;;;;;17.19;43.16;103231.22;5029718;28;20025;-65
2022/03/26 10:02:52;;;;;;;39.47;19.52;;;;;;;17.24;42.29;103236.94;5027475;28;20064;-65
2022/03/26 10:05:18;;;;;;;41.33;20.02;;;;;;;17.31;42.16;103235.31;5029288;28;20045;-66
2022/03/26 10:07:45;;;;;;;44.97;21.52;;;;;;;17.44;41.81;103237.63;5028948;28;20018;-66
2022/03/26 10:10:21;;;;;;;39.17;20.92;;;;;;;17.52;41.95;103231.44;5027906;28;20033;-65
2022/03/26 10:12:50;;;;;;;41.55;20.52;;;;;;;17.61;42.30;103234.00;5015863;28;20059;-66
2022/03/26 10:15:15;;;;;;;45.60;22.95;;;;;;;17.68;41.89;103236.13;5028798;28;20021;-65
2022/03/26 10:17:40;;;;;;;50.00;22.77;;;;;;;17.63;42.03;103229.31;5029308;28;20053;-65
2022/03/26 10:20:10;;;;;;;51.53;24.05;;;;;;;17.91;42.48;103230.00;5027492;28;20116;-65
2022/03/26 10:22:41;;;;;;;55.42;23.95;;;;;;;17.99;41.89;103229.22;5029303;28;20056;-66
2022/03/26 10:25:22;;;;;;;46.47;22.70;;;;;;;18.04;41.48;103231.44;5028961;28;20044;-66
2022/03/26 10:27:54;;;;;;;44.30;21.55;;;;;;;18.14;42.15;103227.59;5028748;28;20449;-66
2022/03/26 10:32:38;;;;;;;44.83;21.95;;;;;;;18.21;42.06;103217.03;5027964;28;20496;-66
2022/03/26 10:33:23;;;;;;;37.70;21.58;;;;;;;18.29;42.73;103218.91;5028180;28;20654;-66
2022/03/26 10:35:56;;;;;;;39.63;19.92;;;;;;;18.29;42.32;103222.47;5020728;28;20052;-66
2022/03/26 10:38:29;;;;;;;38.17;20.48;;;;;;;18.37;42.37;103222.47;5027768;28;20577;-66
2022/03/26 10:40:59;;;;;;;28.92;15.85;;;;;;;18.41;42.67;103212.22;5027619;28;20485;-66
2022/03/26 10:43:26;;;;;;;25.13;13.77;;;;;;;18.35;42.65;103204.81;5023540;28;20029;-66
2022/03/26 10:45:55;;;;;;;27.08;16.27;;;;;;;18.33;42.73;103212.22;5028224;28;20136;-65
2022/03/26 10:48:38;;;;;;;36.83;18.02;;;;;;;18.41;42.75;103204.16;5027747;28;20528;-66
2022/03/26 10:51:15;;;;;;;27.00;15.70;;;;;;;18.38;43.03;103208.00;5028840;28;20469;-66
2022/03/26 10:53:42;;;;;;;32.22;17.95;;;;;;;18.41;43.27;103209.53;5028314;28;20497;-66
2022/03/26 10:56:12;;;;;;;31.42;16.10;;;;;;;18.44;43.02;103210.03;5027904;28;20030;-66
2022/03/26 10:58:39;;;;;;;22.55;12.18;;;;;;;18.40;42.95;103199.78;5026411;28;20029;-66
2022/03/26 11:01:05;;;;;;;17.95;11.55;;;;;;;18.36;42.82;103204.66;5015185;28;20033;-66
2022/03/26 11:03:31;;;;;;;26.13;11.43;;;;;;;18.27;42.70;103211.84;5028313;28;20017;-66
2022/03/26 11:05:57;;;;;;;27.60;12.55;;;;;;;18.18;42.68;103212.81;5023984;28;20029;-66
2022/03/26 11:08:25;;;;;;;22.52;12.70;;;;;;;18.27;43.05;103206.47;5027023;28;20116;-66
2022/03/26 11:10:52;;;;;;;25.83;13.25;;;;;;;18.27;42.64;103200.25;5025772;28;20021;-66